sensor_id;sensor_type;location;lat;lon;timestamp;P1;durP1;ratioP1;P2;durP2;ratioP2
71351;SDS011;59159;51.652;4.864;2023-11-18T00:01:17;5.97;;;2.67;;
71351;SDS011;59159;51.652;4.864;2023-11-18T00:03:43;6.35;;;2.80;;
71351;SDS011;59159;51.652;4.864;2023-11-18T00:06:09;6.50;;;2.50;;
71351;SDS011;59159;51.652;4.864;2023-11-18T00:08:35;6.22;;;2.53;;
71351;SDS011;59159;51.652;4.864;2023-11-18T00:11:01;5.75;;;2.53;;
71351;SDS011;59159;51.652;4.864;2023-11-18T00:13:28;7.10;;;2.80;;
71351;SDS011;59159;51.652;4.864;2023-11-18T00:15:54;6.93;;;2.92;;
71351;SDS011;59159;51.652;4.864;2023-11-18T00:18:20;7.43;;;2.47;;
71351;SDS011;59159;51.652;4.864;2023-11-18T00:20:46;6.57;;;2.70;;
71351;SDS011;59159;51.652;4.864;2023-11-18T00:23:12;6.38;;;2.58;;
71351;SDS011;59159;51.652;4.864;2023-11-18T00:25:38;7.75;;;2.88;;
71351;SDS011;59159;51.652;4.864;2023-11-18T00:28:05;6.45;;;2.60;;
71351;SDS011;59159;51.652;4.864;2023-11-18T00:30:34;7.73;;;2.70;;
71351;SDS011;59159;51.652;4.864;2023-11-18T00:33:00;6.95;;;2.45;;
71351;SDS011;59159;51.652;4.864;2023-11-18T00:35:26;5.80;;;2.30;;
71351;SDS011;59159;51.652;4.864;2023-11-18T00:37:52;6.17;;;2.60;;
71351;SDS011;59159;51.652;4.864;2023-11-18T00:40:18;6.07;;;2.38;;
71351;SDS011;59159;51.652;4.864;2023-11-18T00:42:44;6.15;;;2.53;;
71351;SDS011;59159;51.652;4.864;2023-11-18T00:45:10;5.90;;;2.17;;
71351;SDS011;59159;51.652;4.864;2023-11-18T00:47:39;7.47;;;2.97;;
71351;SDS011;59159;51.652;4.864;2023-11-18T00:50:06;6.70;;;2.50;;
71351;SDS011;59159;51.652;4.864;2023-11-18T00:52:33;7.10;;;2.38;;
71351;SDS011;59159;51.652;4.864;2023-11-18T00:54:59;6.33;;;2.57;;
71351;SDS011;59159;51.652;4.864;2023-11-18T00:57:26;6.40;;;2.55;;
71351;SDS011;59159;51.652;4.864;2023-11-18T00:59:52;7.60;;;2.65;;
71351;SDS011;59159;51.652;4.864;2023-11-18T01:02:18;6.67;;;2.70;;
71351;SDS011;59159;51.652;4.864;2023-11-18T01:04:44;6.80;;;2.65;;
71351;SDS011;59159;51.652;4.864;2023-11-18T01:07:11;5.50;;;2.60;;
71351;SDS011;59159;51.652;4.864;2023-11-18T01:09:37;7.03;;;2.80;;
71351;SDS011;59159;51.652;4.864;2023-11-18T01:12:04;6.18;;;2.33;;
71351;SDS011;59159;51.652;4.864;2023-11-18T01:14:30;7.20;;;2.78;;
71351;SDS011;59159;51.652;4.864;2023-11-18T01:16:56;5.90;;;2.63;;
71351;SDS011;59159;51.652;4.864;2023-11-18T01:19:22;6.27;;;2.80;;
71351;SDS011;59159;51.652;4.864;2023-11-18T01:21:49;5.95;;;2.47;;
71351;SDS011;59159;51.652;4.864;2023-11-18T01:24:18;6.43;;;2.50;;
71351;SDS011;59159;51.652;4.864;2023-11-18T01:26:44;6.57;;;3.03;;
71351;SDS011;59159;51.652;4.864;2023-11-18T01:29:10;6.25;;;2.65;;
71351;SDS011;59159;51.652;4.864;2023-11-18T01:31:36;5.20;;;2.15;;
71351;SDS011;59159;51.652;4.864;2023-11-18T01:34:07;7.63;;;2.70;;
71351;SDS011;59159;51.652;4.864;2023-11-18T01:36:33;5.80;;;2.40;;
71351;SDS011;59159;51.652;4.864;2023-11-18T01:38:59;6.53;;;3.00;;
71351;SDS011;59159;51.652;4.864;2023-11-18T01:41:25;6.80;;;2.83;;
71351;SDS011;59159;51.652;4.864;2023-11-18T01:43:51;7.40;;;2.50;;
71351;SDS011;59159;51.652;4.864;2023-11-18T01:46:18;7.03;;;2.42;;
71351;SDS011;59159;51.652;4.864;2023-11-18T01:48:46;6.10;;;2.63;;
71351;SDS011;59159;51.652;4.864;2023-11-18T01:51:12;6.13;;;2.30;;
71351;SDS011;59159;51.652;4.864;2023-11-18T01:53:39;6.78;;;2.67;;
71351;SDS011;59159;51.652;4.864;2023-11-18T01:56:06;7.32;;;2.40;;
71351;SDS011;59159;51.652;4.864;2023-11-18T01:58:33;5.80;;;2.50;;
71351;SDS011;59159;51.652;4.864;2023-11-18T02:01:00;6.78;;;2.85;;
71351;SDS011;59159;51.652;4.864;2023-11-18T02:03:27;6.38;;;2.50;;
71351;SDS011;59159;51.652;4.864;2023-11-18T02:05:53;6.68;;;2.63;;
71351;SDS011;59159;51.652;4.864;2023-11-18T02:08:19;6.43;;;3.00;;
71351;SDS011;59159;51.652;4.864;2023-11-18T02:10:49;6.50;;;2.63;;
71351;SDS011;59159;51.652;4.864;2023-11-18T02:13:24;7.95;;;2.90;;
71351;SDS011;59159;51.652;4.864;2023-11-18T02:15:53;6.60;;;3.13;;
71351;SDS011;59159;51.652;4.864;2023-11-18T02:18:24;7.55;;;3.03;;
71351;SDS011;59159;51.652;4.864;2023-11-18T02:20:50;6.15;;;2.63;;
71351;SDS011;59159;51.652;4.864;2023-11-18T02:23:17;6.40;;;2.47;;
71351;SDS011;59159;51.652;4.864;2023-11-18T02:25:46;5.88;;;2.65;;
71351;SDS011;59159;51.652;4.864;2023-11-18T02:28:12;8.40;;;3.30;;
71351;SDS011;59159;51.652;4.864;2023-11-18T02:30:39;6.90;;;2.70;;
71351;SDS011;59159;51.652;4.864;2023-11-18T02:35:35;7.07;;;2.88;;
71351;SDS011;59159;51.652;4.864;2023-11-18T02:38:02;7.35;;;3.03;;
71351;SDS011;59159;51.652;4.864;2023-11-18T02:40:36;6.70;;;2.70;;
71351;SDS011;59159;51.652;4.864;2023-11-18T02:43:04;7.50;;;2.95;;
71351;SDS011;59159;51.652;4.864;2023-11-18T02:45:30;7.47;;;2.90;;
71351;SDS011;59159;51.652;4.864;2023-11-18T02:47:57;7.33;;;3.03;;
71351;SDS011;59159;51.652;4.864;2023-11-18T02:50:26;6.93;;;2.85;;
71351;SDS011;59159;51.652;4.864;2023-11-18T02:52:52;6.57;;;2.92;;
71351;SDS011;59159;51.652;4.864;2023-11-18T02:55:19;6.43;;;2.92;;
71351;SDS011;59159;51.652;4.864;2023-11-18T02:57:49;6.93;;;2.50;;
71351;SDS011;59159;51.652;4.864;2023-11-18T03:00:16;5.75;;;2.40;;
71351;SDS011;59159;51.652;4.864;2023-11-18T03:02:49;8.43;;;2.90;;
71351;SDS011;59159;51.652;4.864;2023-11-18T03:05:17;6.67;;;2.70;;
71351;SDS011;59159;51.652;4.864;2023-11-18T03:07:46;6.47;;;2.85;;
71351;SDS011;59159;51.652;4.864;2023-11-18T03:10:18;7.32;;;2.83;;
71351;SDS011;59159;51.652;4.864;2023-11-18T03:12:47;7.57;;;2.60;;
71351;SDS011;59159;51.652;4.864;2023-11-18T03:15:14;6.75;;;2.35;;
71351;SDS011;59159;51.652;4.864;2023-11-18T03:17:43;7.95;;;2.67;;
71351;SDS011;59159;51.652;4.864;2023-11-18T03:20:09;6.60;;;2.85;;
71351;SDS011;59159;51.652;4.864;2023-11-18T03:22:37;7.13;;;2.40;;
71351;SDS011;59159;51.652;4.864;2023-11-18T03:25:03;6.43;;;2.97;;
71351;SDS011;59159;51.652;4.864;2023-11-18T03:27:30;5.95;;;2.50;;
71351;SDS011;59159;51.652;4.864;2023-11-18T03:29:56;7.10;;;2.70;;
71351;SDS011;59159;51.652;4.864;2023-11-18T03:32:22;7.05;;;2.70;;
71351;SDS011;59159;51.652;4.864;2023-11-18T03:34:48;6.75;;;2.78;;
71351;SDS011;59159;51.652;4.864;2023-11-18T03:37:14;6.80;;;2.50;;
71351;SDS011;59159;51.652;4.864;2023-11-18T03:39:40;7.13;;;3.08;;
71351;SDS011;59159;51.652;4.864;2023-11-18T03:42:06;7.45;;;2.88;;
71351;SDS011;59159;51.652;4.864;2023-11-18T03:44:33;6.13;;;2.83;;
71351;SDS011;59159;51.652;4.864;2023-11-18T03:46:59;5.57;;;2.73;;
71351;SDS011;59159;51.652;4.864;2023-11-18T03:49:27;7.65;;;2.85;;
71351;SDS011;59159;51.652;4.864;2023-11-18T03:51:53;6.78;;;2.88;;
71351;SDS011;59159;51.652;4.864;2023-11-18T03:54:20;5.93;;;2.73;;
71351;SDS011;59159;51.652;4.864;2023-11-18T03:56:45;6.47;;;2.78;;
71351;SDS011;59159;51.652;4.864;2023-11-18T03:59:11;6.28;;;2.55;;
71351;SDS011;59159;51.652;4.864;2023-11-18T04:01:38;6.20;;;2.50;;
71351;SDS011;59159;51.652;4.864;2023-11-18T04:04:05;6.10;;;2.58;;
71351;SDS011;59159;51.652;4.864;2023-11-18T04:06:32;8.73;;;2.65;;
71351;SDS011;59159;51.652;4.864;2023-11-18T04:08:58;6.97;;;2.97;;
71351;SDS011;59159;51.652;4.864;2023-11-18T04:11:24;6.80;;;2.50;;
71351;SDS011;59159;51.652;4.864;2023-11-18T04:13:50;7.68;;;3.00;;
71351;SDS011;59159;51.652;4.864;2023-11-18T04:16:16;6.65;;;2.55;;
71351;SDS011;59159;51.652;4.864;2023-11-18T04:18:43;6.37;;;2.60;;
71351;SDS011;59159;51.652;4.864;2023-11-18T04:21:09;7.03;;;3.17;;
71351;SDS011;59159;51.652;4.864;2023-11-18T04:23:39;8.00;;;3.15;;
71351;SDS011;59159;51.652;4.864;2023-11-18T04:26:05;5.80;;;2.40;;
71351;SDS011;59159;51.652;4.864;2023-11-18T04:28:32;6.05;;;2.60;;
71351;SDS011;59159;51.652;4.864;2023-11-18T04:30:58;6.80;;;2.60;;
71351;SDS011;59159;51.652;4.864;2023-11-18T04:33:24;6.10;;;2.80;;
71351;SDS011;59159;51.652;4.864;2023-11-18T04:35:53;6.07;;;2.60;;
71351;SDS011;59159;51.652;4.864;2023-11-18T04:38:22;7.22;;;2.70;;
71351;SDS011;59159;51.652;4.864;2023-11-18T04:40:48;6.47;;;2.67;;
71351;SDS011;59159;51.652;4.864;2023-11-18T04:43:14;8.03;;;2.73;;
71351;SDS011;59159;51.652;4.864;2023-11-18T04:45:40;7.35;;;2.80;;
71351;SDS011;59159;51.652;4.864;2023-11-18T04:48:07;6.18;;;2.42;;
71351;SDS011;59159;51.652;4.864;2023-11-18T04:50:33;7.30;;;2.63;;
71351;SDS011;59159;51.652;4.864;2023-11-18T04:52:59;7.32;;;3.13;;
71351;SDS011;59159;51.652;4.864;2023-11-18T04:55:25;6.25;;;2.60;;
71351;SDS011;59159;51.652;4.864;2023-11-18T04:57:54;6.97;;;2.50;;
71351;SDS011;59159;51.652;4.864;2023-11-18T05:00:20;6.37;;;2.80;;
71351;SDS011;59159;51.652;4.864;2023-11-18T05:02:47;6.25;;;2.63;;
71351;SDS011;59159;51.652;4.864;2023-11-18T05:05:14;6.88;;;2.47;;
71351;SDS011;59159;51.652;4.864;2023-11-18T05:07:40;7.50;;;2.77;;
71351;SDS011;59159;51.652;4.864;2023-11-18T05:10:07;11.25;;;3.15;;
71351;SDS011;59159;51.652;4.864;2023-11-18T05:12:33;6.05;;;2.53;;
71351;SDS011;59159;51.652;4.864;2023-11-18T05:14:59;6.03;;;2.40;;
71351;SDS011;59159;51.652;4.864;2023-11-18T05:17:26;6.28;;;2.60;;
71351;SDS011;59159;51.652;4.864;2023-11-18T05:19:52;8.00;;;2.95;;
71351;SDS011;59159;51.652;4.864;2023-11-18T05:22:19;7.32;;;2.30;;
71351;SDS011;59159;51.652;4.864;2023-11-18T05:24:48;6.10;;;2.70;;
71351;SDS011;59159;51.652;4.864;2023-11-18T05:27:14;6.40;;;2.65;;
71351;SDS011;59159;51.652;4.864;2023-11-18T05:29:42;6.03;;;2.42;;
71351;SDS011;59159;51.652;4.864;2023-11-18T05:32:12;6.27;;;2.43;;
71351;SDS011;59159;51.652;4.864;2023-11-18T05:34:38;7.03;;;2.42;;
71351;SDS011;59159;51.652;4.864;2023-11-18T05:37:04;7.22;;;2.78;;
71351;SDS011;59159;51.652;4.864;2023-11-18T05:39:31;7.47;;;2.50;;
71351;SDS011;59159;51.652;4.864;2023-11-18T05:41:58;7.78;;;2.90;;
71351;SDS011;59159;51.652;4.864;2023-11-18T05:44:24;6.13;;;2.40;;
71351;SDS011;59159;51.652;4.864;2023-11-18T05:47:02;7.43;;;2.47;;
71351;SDS011;59159;51.652;4.864;2023-11-18T05:49:28;6.80;;;2.17;;
71351;SDS011;59159;51.652;4.864;2023-11-18T05:51:54;8.13;;;2.70;;
71351;SDS011;59159;51.652;4.864;2023-11-18T05:54:21;6.82;;;2.70;;
71351;SDS011;59159;51.652;4.864;2023-11-18T05:56:47;7.07;;;2.50;;
71351;SDS011;59159;51.652;4.864;2023-11-18T05:59:13;6.15;;;2.20;;
71351;SDS011;59159;51.652;4.864;2023-11-18T06:01:39;6.43;;;2.40;;
71351;SDS011;59159;51.652;4.864;2023-11-18T06:04:05;6.47;;;2.17;;
71351;SDS011;59159;51.652;4.864;2023-11-18T06:06:35;6.53;;;2.70;;
71351;SDS011;59159;51.652;4.864;2023-11-18T06:09:02;7.40;;;2.58;;
71351;SDS011;59159;51.652;4.864;2023-11-18T06:11:34;6.15;;;2.60;;
71351;SDS011;59159;51.652;4.864;2023-11-18T06:14:00;7.90;;;2.70;;
71351;SDS011;59159;51.652;4.864;2023-11-18T06:16:27;6.88;;;2.20;;
71351;SDS011;59159;51.652;4.864;2023-11-18T06:18:54;6.35;;;2.38;;
71351;SDS011;59159;51.652;4.864;2023-11-18T06:21:21;5.93;;;2.40;;
71351;SDS011;59159;51.652;4.864;2023-11-18T06:23:53;6.38;;;2.78;;
71351;SDS011;59159;51.652;4.864;2023-11-18T06:26:23;6.60;;;2.55;;
71351;SDS011;59159;51.652;4.864;2023-11-18T06:28:51;8.00;;;2.53;;
71351;SDS011;59159;51.652;4.864;2023-11-18T06:31:18;5.50;;;2.03;;
71351;SDS011;59159;51.652;4.864;2023-11-18T06:33:45;6.32;;;2.58;;
71351;SDS011;59159;51.652;4.864;2023-11-18T06:38:52;5.07;;;2.00;;
71351;SDS011;59159;51.652;4.864;2023-11-18T06:41:20;5.95;;;2.28;;
71351;SDS011;59159;51.652;4.864;2023-11-18T06:43:48;6.55;;;2.70;;
71351;SDS011;59159;51.652;4.864;2023-11-18T06:46:22;5.93;;;2.20;;
71351;SDS011;59159;51.652;4.864;2023-11-18T06:48:48;7.88;;;2.63;;
71351;SDS011;59159;51.652;4.864;2023-11-18T06:51:15;6.10;;;2.20;;
71351;SDS011;59159;51.652;4.864;2023-11-18T06:53:41;6.90;;;2.70;;
71351;SDS011;59159;51.652;4.864;2023-11-18T06:56:09;9.65;;;2.67;;
71351;SDS011;59159;51.652;4.864;2023-11-18T06:58:36;8.15;;;3.30;;
71351;SDS011;59159;51.652;4.864;2023-11-18T07:01:03;9.52;;;4.10;;
71351;SDS011;59159;51.652;4.864;2023-11-18T07:03:30;7.27;;;3.33;;
71351;SDS011;59159;51.652;4.864;2023-11-18T07:05:56;8.15;;;3.08;;
71351;SDS011;59159;51.652;4.864;2023-11-18T07:08:22;6.65;;;2.90;;
71351;SDS011;59159;51.652;4.864;2023-11-18T07:10:49;8.20;;;2.50;;
71351;SDS011;59159;51.652;4.864;2023-11-18T07:13:15;7.50;;;2.33;;
71351;SDS011;59159;51.652;4.864;2023-11-18T07:15:41;8.30;;;2.58;;
71351;SDS011;59159;51.652;4.864;2023-11-18T07:18:08;6.87;;;3.13;;
71351;SDS011;59159;51.652;4.864;2023-11-18T07:20:34;8.93;;;3.00;;
71351;SDS011;59159;51.652;4.864;2023-11-18T07:23:00;7.18;;;3.47;;
71351;SDS011;59159;51.652;4.864;2023-11-18T07:25:26;7.72;;;2.67;;
71351;SDS011;59159;51.652;4.864;2023-11-18T07:27:52;7.70;;;2.53;;
71351;SDS011;59159;51.652;4.864;2023-11-18T07:30:18;8.82;;;2.15;;
71351;SDS011;59159;51.652;4.864;2023-11-18T07:32:45;9.55;;;3.45;;
71351;SDS011;59159;51.652;4.864;2023-11-18T07:35:11;7.90;;;2.30;;
71351;SDS011;59159;51.652;4.864;2023-11-18T07:37:37;6.43;;;2.25;;
71351;SDS011;59159;51.652;4.864;2023-11-18T07:40:03;7.43;;;2.22;;
71351;SDS011;59159;51.652;4.864;2023-11-18T07:42:32;5.33;;;1.90;;
71351;SDS011;59159;51.652;4.864;2023-11-18T07:44:59;6.60;;;1.90;;
71351;SDS011;59159;51.652;4.864;2023-11-18T07:47:28;7.45;;;2.15;;
71351;SDS011;59159;51.652;4.864;2023-11-18T07:49:56;6.35;;;2.08;;
71351;SDS011;59159;51.652;4.864;2023-11-18T07:52:22;8.60;;;1.90;;
71351;SDS011;59159;51.652;4.864;2023-11-18T07:54:48;7.38;;;2.00;;
71351;SDS011;59159;51.652;4.864;2023-11-18T07:57:14;7.97;;;2.33;;
71351;SDS011;59159;51.652;4.864;2023-11-18T07:59:40;4.93;;;1.60;;
71351;SDS011;59159;51.652;4.864;2023-11-18T08:02:06;7.20;;;1.83;;
71351;SDS011;59159;51.652;4.864;2023-11-18T08:04:34;6.70;;;2.20;;
71351;SDS011;59159;51.652;4.864;2023-11-18T08:07:00;5.97;;;1.93;;
71351;SDS011;59159;51.652;4.864;2023-11-18T08:09:26;6.13;;;1.60;;
71351;SDS011;59159;51.652;4.864;2023-11-18T08:11:52;6.72;;;1.60;;
71351;SDS011;59159;51.652;4.864;2023-11-18T08:14:20;6.57;;;1.92;;
71351;SDS011;59159;51.652;4.864;2023-11-18T08:16:47;5.57;;;1.57;;
71351;SDS011;59159;51.652;4.864;2023-11-18T08:19:14;4.93;;;1.52;;
71351;SDS011;59159;51.652;4.864;2023-11-18T08:21:40;6.90;;;2.33;;
71351;SDS011;59159;51.652;4.864;2023-11-18T08:24:07;6.77;;;1.60;;
71351;SDS011;59159;51.652;4.864;2023-11-18T08:26:34;5.72;;;1.90;;
71351;SDS011;59159;51.652;4.864;2023-11-18T08:29:00;5.35;;;1.60;;
71351;SDS011;59159;51.652;4.864;2023-11-18T08:31:26;5.30;;;1.60;;
71351;SDS011;59159;51.652;4.864;2023-11-18T08:33:52;4.65;;;1.50;;
71351;SDS011;59159;51.652;4.864;2023-11-18T08:36:19;6.15;;;1.50;;
71351;SDS011;59159;51.652;4.864;2023-11-18T08:38:47;5.45;;;1.50;;
71351;SDS011;59159;51.652;4.864;2023-11-18T08:41:14;5.07;;;1.37;;
71351;SDS011;59159;51.652;4.864;2023-11-18T08:43:40;5.22;;;1.70;;
71351;SDS011;59159;51.652;4.864;2023-11-18T08:46:06;5.32;;;1.60;;
71351;SDS011;59159;51.652;4.864;2023-11-18T08:48:32;6.23;;;1.57;;
71351;SDS011;59159;51.652;4.864;2023-11-18T08:50:59;4.90;;;1.50;;
71351;SDS011;59159;51.652;4.864;2023-11-18T08:53:28;6.80;;;1.83;;
71351;SDS011;59159;51.652;4.864;2023-11-18T08:55:54;5.93;;;1.50;;
71351;SDS011;59159;51.652;4.864;2023-11-18T08:58:20;5.03;;;1.55;;
71351;SDS011;59159;51.652;4.864;2023-11-18T09:00:53;4.85;;;1.50;;
71351;SDS011;59159;51.652;4.864;2023-11-18T09:03:20;9.82;;;2.22;;
71351;SDS011;59159;51.652;4.864;2023-11-18T09:05:58;5.27;;;1.40;;
71351;SDS011;59159;51.652;4.864;2023-11-18T09:08:29;6.00;;;1.52;;
71351;SDS011;59159;51.652;4.864;2023-11-18T09:11:06;5.15;;;1.40;;
71351;SDS011;59159;51.652;4.864;2023-11-18T09:13:33;4.50;;;1.50;;
71351;SDS011;59159;51.652;4.864;2023-11-18T09:16:00;5.78;;;1.67;;
71351;SDS011;59159;51.652;4.864;2023-11-18T09:18:27;4.60;;;1.40;;
71351;SDS011;59159;51.652;4.864;2023-11-18T09:20:55;5.93;;;1.50;;
71351;SDS011;59159;51.652;4.864;2023-11-18T09:23:24;4.40;;;1.30;;
71351;SDS011;59159;51.652;4.864;2023-11-18T09:25:50;4.05;;;1.20;;
71351;SDS011;59159;51.652;4.864;2023-11-18T09:28:17;5.75;;;1.50;;
71351;SDS011;59159;51.652;4.864;2023-11-18T09:30:43;4.43;;;1.30;;
71351;SDS011;59159;51.652;4.864;2023-11-18T09:33:22;5.57;;;1.50;;
71351;SDS011;59159;51.652;4.864;2023-11-18T09:35:56;4.57;;;1.40;;
71351;SDS011;59159;51.652;4.864;2023-11-18T09:38:26;4.37;;;1.13;;
71351;SDS011;59159;51.652;4.864;2023-11-18T09:40:58;5.32;;;1.40;;
71351;SDS011;59159;51.652;4.864;2023-11-18T09:43:31;4.05;;;1.30;;
71351;SDS011;59159;51.652;4.864;2023-11-18T09:46:07;4.20;;;1.30;;
71351;SDS011;59159;51.652;4.864;2023-11-18T09:48:44;5.30;;;1.75;;
71351;SDS011;59159;51.652;4.864;2023-11-18T09:51:20;5.20;;;1.50;;
71351;SDS011;59159;51.652;4.864;2023-11-18T09:53:48;10.00;;;1.70;;
71351;SDS011;59159;51.652;4.864;2023-11-18T09:59:05;4.57;;;1.50;;
71351;SDS011;59159;51.652;4.864;2023-11-18T10:01:34;3.97;;;1.25;;
71351;SDS011;59159;51.652;4.864;2023-11-18T10:04:03;4.87;;;1.27;;
71351;SDS011;59159;51.652;4.864;2023-11-18T10:06:32;5.15;;;1.30;;
71351;SDS011;59159;51.652;4.864;2023-11-18T10:08:59;6.30;;;1.65;;
71351;SDS011;59159;51.652;4.864;2023-11-18T10:11:39;6.00;;;1.20;;
71351;SDS011;59159;51.652;4.864;2023-11-18T10:14:07;5.05;;;1.45;;
71351;SDS011;59159;51.652;4.864;2023-11-18T10:16:33;4.32;;;1.33;;
71351;SDS011;59159;51.652;4.864;2023-11-18T10:19:00;5.53;;;1.23;;
71351;SDS011;59159;51.652;4.864;2023-11-18T10:21:36;9.37;;;1.60;;
71351;SDS011;59159;51.652;4.864;2023-11-18T10:24:05;9.07;;;1.95;;
71351;SDS011;59159;51.652;4.864;2023-11-18T10:26:39;3.90;;;1.20;;
71351;SDS011;59159;51.652;4.864;2023-11-18T10:29:05;5.20;;;1.53;;
71351;SDS011;59159;51.652;4.864;2023-11-18T10:31:33;7.22;;;1.80;;
71351;SDS011;59159;51.652;4.864;2023-11-18T10:34:00;4.70;;;1.38;;
71351;SDS011;59159;51.652;4.864;2023-11-18T10:36:29;7.37;;;1.63;;
71351;SDS011;59159;51.652;4.864;2023-11-18T10:38:58;5.90;;;1.30;;
71351;SDS011;59159;51.652;4.864;2023-11-18T10:41:25;5.53;;;1.25;;
71351;SDS011;59159;51.652;4.864;2023-11-18T10:44:06;5.82;;;1.52;;
71351;SDS011;59159;51.652;4.864;2023-11-18T10:46:38;5.70;;;1.20;;
71351;SDS011;59159;51.652;4.864;2023-11-18T10:49:05;7.82;;;2.03;;
71351;SDS011;59159;51.652;4.864;2023-11-18T10:51:35;5.03;;;1.70;;
71351;SDS011;59159;51.652;4.864;2023-11-18T10:54:04;5.37;;;1.50;;
71351;SDS011;59159;51.652;4.864;2023-11-18T10:56:40;6.05;;;1.50;;
71351;SDS011;59159;51.652;4.864;2023-11-18T10:59:11;6.80;;;1.50;;
71351;SDS011;59159;51.652;4.864;2023-11-18T11:01:41;6.13;;;1.20;;
71351;SDS011;59159;51.652;4.864;2023-11-18T11:04:10;5.13;;;1.20;;
71351;SDS011;59159;51.652;4.864;2023-11-18T11:06:46;5.53;;;1.30;;
71351;SDS011;59159;51.652;4.864;2023-11-18T11:09:21;5.95;;;1.70;;
71351;SDS011;59159;51.652;4.864;2023-11-18T11:11:56;6.87;;;1.40;;
71351;SDS011;59159;51.652;4.864;2023-11-18T11:14:32;5.95;;;2.08;;
71351;SDS011;59159;51.652;4.864;2023-11-18T11:17:23;5.25;;;1.52;;
71351;SDS011;59159;51.652;4.864;2023-11-18T11:20:04;4.67;;;1.17;;
71351;SDS011;59159;51.652;4.864;2023-11-18T11:22:46;5.50;;;1.40;;
71351;SDS011;59159;51.652;4.864;2023-11-18T11:28:22;5.57;;;1.63;;
71351;SDS011;59159;51.652;4.864;2023-11-18T11:33:39;4.22;;;1.20;;
71351;SDS011;59159;51.652;4.864;2023-11-18T11:36:12;5.35;;;1.40;;
71351;SDS011;59159;51.652;4.864;2023-11-18T11:38:41;5.70;;;1.10;;
71351;SDS011;59159;51.652;4.864;2023-11-18T11:41:11;5.82;;;1.27;;
71351;SDS011;59159;51.652;4.864;2023-11-18T11:43:45;5.90;;;1.33;;
71351;SDS011;59159;51.652;4.864;2023-11-18T11:46:12;5.70;;;2.07;;
71351;SDS011;59159;51.652;4.864;2023-11-18T11:48:38;4.00;;;1.10;;
71351;SDS011;59159;51.652;4.864;2023-11-18T11:51:28;4.00;;;1.10;;
71351;SDS011;59159;51.652;4.864;2023-11-18T11:54:01;5.23;;;1.70;;
71351;SDS011;59159;51.652;4.864;2023-11-18T11:57:02;5.45;;;1.58;;
71351;SDS011;59159;51.652;4.864;2023-11-18T12:02:31;5.80;;;1.65;;
71351;SDS011;59159;51.652;4.864;2023-11-18T12:05:00;5.73;;;1.00;;
71351;SDS011;59159;51.652;4.864;2023-11-18T12:07:32;6.38;;;1.25;;
71351;SDS011;59159;51.652;4.864;2023-11-18T12:10:05;5.03;;;1.30;;
71351;SDS011;59159;51.652;4.864;2023-11-18T12:12:38;6.77;;;1.43;;
71351;SDS011;59159;51.652;4.864;2023-11-18T12:15:07;4.75;;;1.23;;
71351;SDS011;59159;51.652;4.864;2023-11-18T12:23:05;6.35;;;1.20;;
71351;SDS011;59159;51.652;4.864;2023-11-18T12:25:39;4.95;;;1.00;;
71351;SDS011;59159;51.652;4.864;2023-11-18T12:28:06;5.43;;;1.55;;
71351;SDS011;59159;51.652;4.864;2023-11-18T12:33:04;4.25;;;1.08;;
71351;SDS011;59159;51.652;4.864;2023-11-18T12:41:05;4.15;;;1.17;;
71351;SDS011;59159;51.652;4.864;2023-11-18T12:46:56;6.07;;;1.10;;
71351;SDS011;59159;51.652;4.864;2023-11-18T12:49:02;5.68;;;1.00;;
71351;SDS011;59159;51.652;4.864;2023-11-18T12:51:30;4.07;;;1.20;;
71351;SDS011;59159;51.652;4.864;2023-11-18T12:53:59;10.15;;;1.60;;
71351;SDS011;59159;51.652;4.864;2023-11-18T12:56:28;4.23;;;0.90;;
71351;SDS011;59159;51.652;4.864;2023-11-18T12:58:55;6.38;;;1.23;;
71351;SDS011;59159;51.652;4.864;2023-11-18T13:01:21;4.45;;;1.00;;
71351;SDS011;59159;51.652;4.864;2023-11-18T13:03:48;6.47;;;1.70;;
71351;SDS011;59159;51.652;4.864;2023-11-18T13:06:14;5.93;;;1.10;;
71351;SDS011;59159;51.652;4.864;2023-11-18T13:08:40;2.78;;;0.90;;
71351;SDS011;59159;51.652;4.864;2023-11-18T13:11:06;4.30;;;0.80;;
71351;SDS011;59159;51.652;4.864;2023-11-18T13:13:38;3.58;;;1.10;;
71351;SDS011;59159;51.652;4.864;2023-11-18T13:16:05;3.20;;;1.00;;
71351;SDS011;59159;51.652;4.864;2023-11-18T13:18:43;3.53;;;1.08;;
71351;SDS011;59159;51.652;4.864;2023-11-18T13:21:13;3.97;;;0.90;;
71351;SDS011;59159;51.652;4.864;2023-11-18T13:23:40;2.67;;;0.80;;
71351;SDS011;59159;51.652;4.864;2023-11-18T13:26:07;4.82;;;1.20;;
71351;SDS011;59159;51.652;4.864;2023-11-18T13:28:34;3.83;;;0.80;;
71351;SDS011;59159;51.652;4.864;2023-11-18T13:31:00;3.80;;;1.33;;
71351;SDS011;59159;51.652;4.864;2023-11-18T13:33:28;3.35;;;1.00;;
71351;SDS011;59159;51.652;4.864;2023-11-18T13:35:54;4.50;;;1.20;;
71351;SDS011;59159;51.652;4.864;2023-11-18T13:38:20;3.28;;;0.82;;
71351;SDS011;59159;51.652;4.864;2023-11-18T13:40:49;2.13;;;0.60;;
71351;SDS011;59159;51.652;4.864;2023-11-18T13:43:16;3.47;;;0.90;;
71351;SDS011;59159;51.652;4.864;2023-11-18T13:45:42;4.30;;;1.00;;
71351;SDS011;59159;51.652;4.864;2023-11-18T13:48:08;3.33;;;1.05;;
71351;SDS011;59159;51.652;4.864;2023-11-18T13:50:40;3.40;;;0.88;;
71351;SDS011;59159;51.652;4.864;2023-11-18T13:53:06;3.13;;;0.80;;
71351;SDS011;59159;51.652;4.864;2023-11-18T13:55:33;2.63;;;0.60;;
71351;SDS011;59159;51.652;4.864;2023-11-18T13:57:59;4.38;;;0.93;;
71351;SDS011;59159;51.652;4.864;2023-11-18T14:00:25;4.23;;;1.00;;
71351;SDS011;59159;51.652;4.864;2023-11-18T14:02:55;3.92;;;1.25;;
71351;SDS011;59159;51.652;4.864;2023-11-18T14:05:32;3.78;;;0.90;;
71351;SDS011;59159;51.652;4.864;2023-11-18T14:07:58;3.55;;;1.30;;
71351;SDS011;59159;51.652;4.864;2023-11-18T14:10:25;3.23;;;0.83;;
71351;SDS011;59159;51.652;4.864;2023-11-18T14:13:04;2.90;;;0.63;;
71351;SDS011;59159;51.652;4.864;2023-11-18T14:15:33;2.22;;;0.73;;
71351;SDS011;59159;51.652;4.864;2023-11-18T14:18:03;3.10;;;0.70;;
71351;SDS011;59159;51.652;4.864;2023-11-18T14:20:29;3.40;;;0.90;;
71351;SDS011;59159;51.652;4.864;2023-11-18T14:22:56;3.28;;;0.80;;
71351;SDS011;59159;51.652;4.864;2023-11-18T14:25:23;3.80;;;0.80;;
71351;SDS011;59159;51.652;4.864;2023-11-18T14:27:49;5.00;;;1.00;;
71351;SDS011;59159;51.652;4.864;2023-11-18T14:30:16;2.97;;;0.70;;
71351;SDS011;59159;51.652;4.864;2023-11-18T14:32:42;3.50;;;0.80;;
71351;SDS011;59159;51.652;4.864;2023-11-18T14:35:08;3.17;;;0.63;;
71351;SDS011;59159;51.652;4.864;2023-11-18T14:37:34;2.85;;;0.80;;
71351;SDS011;59159;51.652;4.864;2023-11-18T14:40:03;3.22;;;0.70;;
71351;SDS011;59159;51.652;4.864;2023-11-18T14:42:29;2.43;;;0.63;;
71351;SDS011;59159;51.652;4.864;2023-11-18T14:44:55;4.55;;;0.70;;
71351;SDS011;59159;51.652;4.864;2023-11-18T14:47:21;3.35;;;0.70;;
71351;SDS011;59159;51.652;4.864;2023-11-18T14:49:47;2.90;;;0.67;;
71351;SDS011;59159;51.652;4.864;2023-11-18T14:52:13;3.60;;;0.73;;
71351;SDS011;59159;51.652;4.864;2023-11-18T14:54:39;2.05;;;0.60;;
71351;SDS011;59159;51.652;4.864;2023-11-18T14:57:06;3.30;;;0.77;;
71351;SDS011;59159;51.652;4.864;2023-11-18T14:59:32;3.27;;;0.70;;
71351;SDS011;59159;51.652;4.864;2023-11-18T15:01:57;2.88;;;0.82;;
71351;SDS011;59159;51.652;4.864;2023-11-18T15:04:25;5.07;;;1.25;;
71351;SDS011;59159;51.652;4.864;2023-11-18T15:06:51;4.63;;;1.10;;
71351;SDS011;59159;51.652;4.864;2023-11-18T15:09:18;4.07;;;0.90;;
71351;SDS011;59159;51.652;4.864;2023-11-18T15:11:46;3.17;;;0.75;;
71351;SDS011;59159;51.652;4.864;2023-11-18T15:14:15;3.28;;;0.80;;
71351;SDS011;59159;51.652;4.864;2023-11-18T15:16:41;3.97;;;0.90;;
71351;SDS011;59159;51.652;4.864;2023-11-18T15:19:09;3.35;;;0.85;;
71351;SDS011;59159;51.652;4.864;2023-11-18T15:21:36;4.40;;;0.90;;
71351;SDS011;59159;51.652;4.864;2023-11-18T15:24:03;2.77;;;0.70;;
71351;SDS011;59159;51.652;4.864;2023-11-18T15:26:29;6.25;;;1.00;;